createdAt,value
2019-06-07T00:01:25.943Z,12.70
2019-06-07T00:03:55.753Z,12.80
2019-06-07T00:06:26.105Z,12.80
2019-06-07T00:08:55.984Z,12.80
2019-06-07T00:11:25.730Z,12.80
2019-06-07T00:13:55.528Z,12.80
2019-06-07T00:16:25.339Z,12.80
2019-06-07T00:18:55.149Z,12.70
2019-06-07T00:22:12.314Z,12.80
2019-06-07T00:23:56.481Z,12.80
2019-06-07T00:26:26.698Z,12.80
2019-06-07T00:28:56.483Z,12.70
2019-06-07T00:31:26.606Z,12.80
2019-06-07T00:33:56.590Z,12.80
2019-06-07T00:36:26.397Z,12.80
2019-06-07T00:38:56.243Z,12.80
2019-06-07T00:41:26.059Z,12.80
2019-06-07T00:43:55.891Z,12.80
2019-06-07T00:46:26.473Z,12.80
2019-06-07T00:48:56.423Z,12.80
2019-06-07T00:51:26.201Z,12.70
2019-06-07T00:53:56.142Z,12.70
2019-06-07T00:56:26.314Z,12.70
2019-06-07T00:59:10.695Z,12.60
2019-06-07T01:01:28.241Z,12.60
2019-06-07T01:03:58.106Z,12.60
2019-06-07T01:06:27.934Z,12.50
2019-06-07T01:08:58.034Z,12.50
2019-06-07T01:11:27.799Z,12.40
2019-06-07T01:13:58.142Z,12.40
2019-06-07T01:16:27.953Z,12.30
2019-06-07T01:18:57.763Z,12.20
2019-06-07T01:21:29.317Z,12.10
2019-06-07T01:24:11.630Z,12.00
2019-06-07T01:26:30.879Z,11.90
2019-06-07T01:29:00.713Z,11.80
2019-06-07T01:31:31.535Z,11.70
2019-06-07T01:34:01.827Z,11.70
2019-06-07T01:36:31.614Z,11.60
2019-06-07T01:39:01.868Z,11.60
2019-06-07T01:41:31.647Z,11.50
2019-06-07T01:44:01.887Z,11.40
2019-06-07T01:46:31.703Z,11.30
2019-06-07T01:49:01.515Z,11.20
2019-06-07T01:51:31.457Z,11.20
2019-06-07T01:54:48.569Z,11.30
2019-06-07T01:56:32.735Z,11.20
2019-06-07T01:59:02.570Z,11.10
2019-06-07T02:01:35.139Z,11.10
2019-06-07T02:04:03.891Z,11.10
2019-06-07T02:06:33.694Z,11.00
2019-06-07T02:09:04.177Z,10.90
2019-06-07T02:11:34.282Z,11.00
2019-06-07T02:14:04.286Z,11.00
2019-06-07T02:16:34.217Z,10.90
2019-06-07T02:19:04.181Z,10.80
2019-06-07T02:21:35.109Z,10.80
2019-06-07T02:24:04.878Z,10.90
2019-06-07T02:26:34.815Z,10.90
2019-06-07T02:29:04.811Z,10.70
2019-06-07T02:31:39.065Z,10.60
2019-06-07T02:34:06.367Z,10.60
2019-06-07T02:36:41.225Z,10.60
2019-06-07T02:39:08.514Z,10.60
2019-06-07T02:41:40.014Z,10.50
2019-06-07T02:44:09.780Z,10.60
2019-06-07T02:46:49.112Z,10.60
2019-06-07T02:49:11.550Z,10.70
2019-06-07T02:51:42.185Z,10.60
2019-06-07T02:54:12.793Z,10.60
2019-06-07T02:56:56.231Z,10.70
2019-06-07T02:59:14.056Z,10.60
2019-06-07T03:01:43.894Z,10.50
2019-06-07T03:04:14.970Z,10.40
2019-06-07T03:06:45.693Z,10.40
2019-06-07T03:09:15.602Z,10.30
2019-06-07T03:11:47.988Z,10.30
2019-06-07T03:14:21.903Z,10.20
2019-06-07T03:17:03.641Z,10.10
2019-06-07T03:19:41.499Z,10.10
2019-06-07T03:22:11.309Z,10.00
2019-06-07T03:24:44.090Z,10.00
2019-06-07T03:27:36.154Z,10.00
2019-06-07T03:29:45.651Z,10.00
2019-06-07T03:32:15.431Z,10.00
2019-06-07T03:34:45.265Z,9.90
2019-06-07T03:37:15.411Z,10.00
2019-06-07T03:39:45.160Z,10.00
2019-06-07T03:42:14.968Z,10.10
2019-06-07T03:44:44.745Z,10.20
2019-06-07T03:47:14.981Z,10.20
2019-06-07T03:49:45.194Z,10.30
2019-06-07T03:52:22.256Z,10.30
2019-06-07T03:54:52.924Z,10.40
2019-06-07T03:57:22.748Z,10.50
2019-06-07T03:59:52.525Z,10.50
2019-06-07T04:02:22.294Z,10.50
2019-06-07T04:04:52.115Z,10.50
2019-06-07T04:07:22.655Z,10.60
2019-06-07T04:09:52.482Z,10.60
2019-06-07T04:12:22.258Z,10.60
2019-06-07T04:14:52.792Z,10.70
2019-06-07T04:17:22.917Z,10.70
2019-06-07T04:19:52.764Z,10.70
2019-06-07T04:22:22.530Z,10.80
2019-06-07T04:24:52.447Z,10.80
2019-06-07T04:27:22.280Z,10.90
2019-06-07T04:30:06.716Z,11.00
2019-06-07T04:32:23.971Z,11.10
2019-06-07T04:34:54.109Z,11.10
2019-06-07T04:37:26.295Z,11.20
2019-06-07T04:39:56.875Z,11.30
2019-06-07T04:42:29.969Z,11.40
2019-06-07T04:45:00.950Z,11.40
2019-06-07T04:47:33.814Z,11.50
2019-06-07T04:50:05.152Z,11.50
2019-06-07T04:52:39.897Z,11.60
2019-06-07T04:55:07.915Z,11.70
2019-06-07T04:57:40.385Z,11.80
2019-06-07T05:00:44.891Z,11.90
2019-06-07T05:02:43.470Z,12.00
2019-06-07T05:05:13.194Z,12.00
2019-06-07T05:07:45.964Z,12.20
2019-06-07T05:10:14.893Z,12.20
2019-06-07T05:12:44.619Z,12.30
2019-06-07T05:15:14.608Z,12.40
2019-06-07T05:17:45.201Z,12.40
2019-06-07T05:20:16.042Z,12.60
2019-06-07T05:22:46.848Z,12.70
2019-06-07T05:25:17.602Z,12.90
2019-06-07T05:27:47.462Z,13.10
2019-06-07T05:33:18.255Z,13.40
2019-06-07T05:35:48.442Z,13.70
2019-06-07T05:38:18.329Z,13.90
2019-06-07T05:40:48.942Z,14.20
2019-06-07T05:43:29.341Z,14.30
2019-06-07T05:45:59.511Z,14.50
2019-06-07T05:48:29.388Z,14.60
2019-06-07T05:50:59.951Z,14.80
2019-06-07T05:53:31.696Z,15.10
2019-06-07T05:56:01.436Z,15.30
2019-06-07T05:58:31.192Z,15.30
2019-06-07T06:01:41.723Z,15.40
2019-06-07T06:03:35.044Z,15.60
2019-06-07T06:06:04.866Z,15.70
2019-06-07T06:08:36.664Z,15.90
2019-06-07T06:11:06.692Z,16.00
2019-06-07T06:13:42.336Z,16.10
2019-06-07T06:16:08.631Z,16.40
2019-06-07T06:18:38.401Z,16.50
2019-06-07T06:21:18.845Z,16.60
2019-06-07T06:23:42.812Z,16.80
2019-06-07T06:26:12.506Z,16.90
2019-06-07T06:28:42.692Z,17.10
2019-06-07T06:31:13.570Z,17.10
2019-06-07T06:33:44.689Z,17.10
2019-06-07T06:36:14.829Z,17.00
2019-06-07T06:38:47.127Z,17.20
2019-06-07T06:41:16.846Z,17.10
2019-06-07T06:43:50.305Z,17.20
2019-06-07T06:46:37.337Z,17.30
2019-06-07T06:48:54.721Z,17.30
2019-06-07T06:51:22.202Z,17.40
2019-06-07T06:53:52.661Z,17.60
2019-06-07T06:56:22.828Z,17.70
2019-06-07T07:01:24.077Z,18.00
2019-06-07T07:04:11.446Z,18.00
2019-06-07T07:06:27.187Z,18.20
2019-06-07T07:08:58.254Z,18.10
2019-06-07T07:11:28.817Z,18.40
2019-06-07T07:13:59.595Z,18.60
2019-06-07T07:16:29.868Z,18.70
2019-06-07T07:18:59.799Z,18.90
2019-06-07T07:21:29.655Z,18.70
2019-06-07T07:24:20.517Z,18.80
2019-06-07T07:26:33.455Z,18.80
2019-06-07T07:29:04.851Z,18.50
2019-06-07T07:31:34.663Z,18.60
2019-06-07T07:36:39.958Z,18.80
2019-06-07T07:39:11.712Z,19.00
2019-06-07T07:42:04.796Z,19.50
2019-06-07T07:44:14.505Z,19.80
2019-06-07T07:46:45.014Z,19.60
2019-06-07T07:49:16.403Z,19.70
2019-06-07T07:51:46.468Z,19.80
2019-06-07T07:54:16.327Z,19.80
2019-06-07T07:56:47.124Z,20.10
2019-06-07T07:59:18.338Z,20.20
2019-06-07T08:01:49.238Z,20.20
2019-06-07T08:04:39.799Z,20.30
2019-06-07T08:06:55.707Z,20.70
2019-06-07T08:09:24.213Z,21.00
2019-06-07T08:12:00.076Z,21.10
2019-06-07T08:14:25.997Z,21.20
2019-06-07T08:16:57.913Z,20.70
2019-06-07T08:19:27.550Z,20.90
2019-06-07T08:21:57.304Z,21.20
2019-06-07T08:24:27.903Z,21.40
2019-06-07T08:27:17.660Z,21.20
2019-06-07T08:29:44.158Z,21.50
2019-06-07T08:32:01.414Z,21.50
2019-06-07T08:34:31.254Z,21.30
2019-06-07T08:37:02.216Z,21.20
2019-06-07T08:39:32.030Z,21.40
2019-06-07T08:42:15.343Z,21.30
2019-06-07T08:44:33.544Z,21.50
2019-06-07T08:47:19.254Z,21.60
2019-06-07T08:49:34.945Z,21.60
2019-06-07T08:52:10.669Z,21.60
2019-06-07T08:54:36.163Z,21.80
2019-06-07T08:57:19.930Z,21.90
2019-06-07T08:59:37.367Z,21.80
2019-06-07T09:02:22.859Z,21.90
2019-06-07T09:04:39.955Z,21.90
2019-06-07T09:07:19.177Z,22.20
2019-06-07T09:09:41.769Z,22.40
2019-06-07T09:12:11.993Z,22.50
2019-06-07T09:14:58.628Z,22.90
2019-06-07T09:17:13.646Z,23.10
2019-06-07T09:19:43.455Z,23.30
2019-06-07T09:22:13.938Z,23.60
2019-06-07T09:24:44.147Z,23.50
2019-06-07T09:27:14.394Z,23.60
2019-06-07T09:29:45.755Z,23.50
2019-06-07T09:32:18.339Z,23.20
2019-06-07T09:34:47.335Z,23.00
2019-06-07T09:38:03.460Z,23.00
2019-06-07T09:39:49.196Z,23.10
2019-06-07T09:42:19.062Z,23.20
2019-06-07T09:44:48.852Z,23.10
2019-06-07T09:47:31.288Z,22.90
2019-06-07T09:49:50.228Z,23.10
2019-06-07T09:52:20.059Z,23.30
2019-06-07T09:55:20.626Z,23.40
2019-06-07T09:57:21.281Z,23.30
2019-06-07T09:59:51.046Z,23.20
2019-06-07T10:02:20.861Z,23.20
2019-06-07T10:04:50.646Z,23.10
2019-06-07T10:07:31.273Z,23.00
2019-06-07T10:12:24.982Z,23.20
2019-06-07T10:14:55.193Z,23.40
2019-06-07T10:17:25.154Z,23.80
2019-06-07T10:19:55.376Z,24.10
2019-06-07T10:22:25.279Z,24.10
2019-06-07T10:24:55.036Z,24.20
2019-06-07T10:27:25.257Z,24.00
2019-06-07T10:29:55.432Z,24.00
2019-06-07T10:32:25.669Z,23.90
2019-06-07T10:34:55.533Z,23.90
2019-06-07T10:37:26.055Z,23.90
2019-06-07T10:39:56.239Z,23.90
2019-06-07T10:42:26.146Z,23.90
2019-06-07T10:44:56.939Z,23.80
2019-06-07T10:47:27.093Z,23.70
2019-06-07T10:49:57.200Z,23.80
2019-06-07T10:52:27.847Z,23.80
2019-06-07T10:54:58.129Z,23.70
2019-06-07T10:57:27.928Z,23.70
2019-06-07T10:59:57.690Z,23.70
2019-06-07T11:02:28.137Z,23.80
2019-06-07T11:04:57.941Z,23.80
2019-06-07T11:07:28.045Z,24.00
2019-06-07T11:10:07.110Z,24.10
2019-06-07T11:12:29.251Z,24.20
2019-06-07T11:14:59.043Z,24.30
2019-06-07T11:17:28.782Z,24.40
2019-06-07T11:19:59.328Z,24.40
2019-06-07T11:22:29.115Z,24.50
2019-06-07T11:24:59.386Z,24.50
2019-06-07T11:27:29.210Z,24.50
2019-06-07T11:29:59.426Z,24.60
2019-06-07T11:32:29.212Z,24.60
2019-06-07T11:34:59.127Z,24.50
2019-06-07T11:37:28.955Z,24.60
2019-06-07T11:39:59.175Z,24.60
2019-06-07T11:42:29.002Z,24.70
2019-06-07T11:44:59.230Z,24.70
2019-06-07T11:47:29.067Z,24.80
2019-06-07T11:49:58.814Z,24.90
2019-06-07T11:52:28.595Z,24.90
2019-06-07T11:54:58.347Z,25.00
2019-06-07T11:57:28.189Z,25.10
2019-06-07T11:59:57.935Z,25.20
2019-06-07T12:02:28.096Z,25.30
2019-06-07T12:04:57.968Z,25.40
2019-06-07T12:07:27.706Z,25.30
2019-06-07T12:09:58.259Z,25.40
2019-06-07T12:12:29.368Z,25.60
2019-06-07T12:14:59.133Z,25.70
2019-06-07T12:17:29.270Z,25.50
2019-06-07T12:19:59.844Z,25.50
2019-06-07T12:22:29.651Z,25.60
2019-06-07T12:24:59.921Z,25.60
2019-06-07T12:27:29.758Z,25.50
2019-06-07T12:29:59.574Z,25.50
2019-06-07T12:32:29.336Z,25.50
2019-06-07T12:34:59.530Z,25.50
2019-06-07T12:37:43.227Z,25.70
2019-06-07T12:40:01.308Z,25.80
2019-06-07T12:42:31.088Z,25.70
2019-06-07T12:45:01.211Z,25.70
2019-06-07T12:47:31.474Z,25.60
2019-06-07T12:50:02.051Z,25.70
2019-06-07T12:52:32.284Z,25.80
2019-06-07T12:55:02.557Z,25.80
2019-06-07T12:57:32.755Z,25.90
2019-06-07T13:00:03.055Z,25.90
2019-06-07T13:02:33.287Z,26.00
2019-06-07T13:05:04.898Z,26.20
2019-06-07T13:07:35.323Z,26.20
2019-06-07T13:10:06.118Z,26.20
2019-06-07T13:12:36.241Z,26.10
2019-06-07T13:15:06.597Z,26.20
2019-06-07T13:17:50.087Z,26.20
2019-06-07T13:20:20.528Z,26.20
2019-06-07T13:22:50.395Z,26.30
2019-06-07T13:25:21.214Z,26.30
2019-06-07T13:27:52.022Z,26.40
2019-06-07T13:30:23.506Z,26.40
2019-06-07T13:32:54.488Z,26.50
2019-06-07T13:35:25.474Z,26.50
2019-06-07T13:37:59.416Z,26.50
2019-06-07T13:40:28.685Z,26.40
2019-06-07T13:42:58.560Z,26.40
2019-06-07T13:45:28.885Z,26.40
2019-06-07T13:47:59.207Z,26.40
2019-06-07T13:50:29.522Z,26.40
2019-06-07T13:53:00.343Z,26.40
2019-06-07T13:55:30.684Z,26.40
2019-06-07T13:58:01.376Z,26.50
2019-06-07T14:00:31.599Z,26.60
2019-06-07T14:03:01.527Z,26.60
2019-06-07T14:05:31.366Z,26.60
2019-06-07T14:08:01.566Z,26.60
2019-06-07T14:10:31.440Z,26.70
2019-06-07T14:13:01.755Z,26.80
2019-06-07T14:15:34.439Z,26.80
2019-06-07T14:18:04.495Z,26.80
2019-06-07T14:20:34.812Z,26.80
2019-06-07T14:23:04.763Z,26.70
2019-06-07T14:25:34.691Z,26.60
2019-06-07T14:28:10.853Z,26.60
2019-06-07T14:30:37.001Z,26.60
2019-06-07T14:33:06.876Z,26.60
2019-06-07T14:35:36.731Z,26.60
2019-06-07T14:38:07.003Z,26.60
2019-06-07T14:40:38.310Z,26.50
2019-06-07T14:43:10.430Z,26.50
2019-06-07T14:45:41.008Z,26.50
2019-06-07T14:48:11.130Z,26.50
2019-06-07T14:50:41.590Z,26.40
2019-06-07T14:53:11.842Z,26.50
2019-06-07T14:55:41.696Z,26.50
2019-06-07T14:58:11.620Z,26.60
2019-06-07T15:00:45.225Z,26.60
2019-06-07T15:03:14.958Z,26.50
2019-06-07T15:05:44.831Z,26.50
2019-06-07T15:08:14.594Z,26.50
2019-06-07T15:10:44.400Z,26.50
2019-06-07T15:13:14.671Z,26.50
2019-06-07T15:15:44.506Z,26.50
2019-06-07T15:18:14.714Z,26.50
2019-06-07T15:20:45.259Z,26.50
2019-06-07T15:23:15.006Z,26.50
2019-06-07T15:25:44.851Z,26.50
2019-06-07T15:28:14.640Z,26.50
2019-06-07T15:30:44.402Z,26.50
2019-06-07T15:33:14.559Z,26.40
2019-06-07T15:35:44.322Z,26.40
2019-06-07T15:38:14.470Z,26.40
2019-06-07T15:40:44.209Z,26.40
2019-06-07T15:43:14.474Z,26.40
2019-06-07T15:45:51.940Z,26.40
2019-06-07T15:48:21.495Z,26.40
2019-06-07T15:50:51.251Z,26.40
2019-06-07T15:53:21.036Z,26.40
2019-06-07T15:55:51.625Z,26.30
2019-06-07T15:58:21.417Z,26.20
2019-06-07T16:00:51.612Z,26.20
2019-06-07T16:03:21.919Z,26.20
2019-06-07T16:06:00.212Z,26.20
2019-06-07T16:08:30.076Z,26.10
2019-06-07T16:11:00.031Z,26.10
2019-06-07T16:13:30.631Z,26.10
2019-06-07T16:16:00.855Z,26.00
2019-06-07T16:18:30.714Z,26.00
2019-06-07T16:21:00.997Z,26.00
2019-06-07T16:23:30.820Z,26.00
2019-06-07T16:26:00.615Z,26.00
2019-06-07T16:28:30.390Z,26.00
2019-06-07T16:31:00.186Z,26.00
2019-06-07T16:33:30.389Z,26.00
2019-06-07T16:36:00.540Z,26.00
2019-06-07T16:38:34.459Z,26.00
2019-06-07T16:41:04.626Z,25.90
2019-06-07T16:43:36.536Z,25.90
2019-06-07T16:46:07.548Z,25.90
2019-06-07T16:48:38.813Z,25.80
2019-06-07T16:51:10.710Z,25.80
2019-06-07T16:53:42.366Z,25.70
2019-06-07T16:56:13.227Z,25.70
2019-06-07T16:58:44.411Z,25.70
2019-06-07T17:01:16.638Z,25.60
2019-06-07T17:03:47.541Z,25.60
2019-06-07T17:06:17.434Z,25.50
2019-06-07T17:08:48.460Z,25.50
2019-06-07T17:11:18.462Z,25.50
2019-06-07T17:13:48.582Z,25.50
2019-06-07T17:16:18.897Z,25.50
2019-06-07T17:18:49.194Z,25.40
2019-06-07T17:21:19.151Z,25.40
2019-06-07T17:23:49.428Z,25.30
2019-06-07T17:26:20.124Z,25.30
2019-06-07T17:28:50.112Z,25.30
2019-06-07T17:31:20.363Z,25.20
2019-06-07T17:33:50.245Z,25.10
2019-06-07T17:36:20.472Z,25.20
2019-06-07T17:38:50.686Z,25.10
2019-06-07T17:41:20.549Z,25.10
2019-06-07T17:43:58.478Z,25.10
2019-06-07T17:46:22.253Z,25.00
2019-06-07T17:48:52.126Z,25.00
2019-06-07T17:51:22.046Z,25.00
2019-06-07T17:53:52.104Z,25.00
2019-06-07T17:56:21.915Z,25.00
2019-06-07T17:58:52.416Z,25.00
2019-06-07T18:01:22.692Z,24.90
2019-06-07T18:03:53.729Z,24.90
2019-06-07T18:06:24.759Z,24.80
2019-06-07T18:08:55.823Z,24.80
2019-06-07T18:11:25.615Z,24.70
2019-06-07T18:14:08.522Z,24.60
2019-06-07T18:16:27.170Z,24.60
2019-06-07T18:18:57.846Z,24.50
2019-06-07T18:21:27.962Z,24.50
2019-06-07T18:23:58.665Z,24.40
2019-06-07T18:26:28.472Z,24.30
2019-06-07T18:28:59.328Z,24.20
2019-06-07T18:31:29.174Z,24.10
2019-06-07T18:33:59.285Z,24.00
2019-06-07T18:36:29.120Z,24.00
2019-06-07T18:38:59.303Z,23.90
2019-06-07T18:41:29.567Z,23.70
2019-06-07T18:43:59.404Z,23.60
2019-06-07T18:46:29.283Z,23.50
2019-06-07T18:48:59.052Z,23.40
2019-06-07T18:51:29.274Z,23.30
2019-06-07T18:53:59.065Z,23.20
2019-06-07T18:56:29.198Z,23.10
2019-06-07T18:58:59.423Z,23.00
2019-06-07T19:01:29.543Z,22.90
2019-06-07T19:04:01.131Z,22.80
2019-06-07T19:06:32.802Z,22.70
2019-06-07T19:09:04.530Z,22.70
2019-06-07T19:11:34.685Z,22.60
2019-06-07T19:14:05.199Z,22.70
2019-06-07T19:16:35.280Z,22.70
2019-06-07T19:19:07.464Z,22.70
2019-06-07T19:21:37.931Z,22.70
2019-06-07T19:24:08.595Z,22.70
2019-06-07T19:26:38.834Z,22.70
2019-06-07T19:29:09.490Z,22.60
2019-06-07T19:31:39.333Z,22.60
2019-06-07T19:34:09.819Z,22.50
2019-06-07T19:36:48.443Z,22.40
2019-06-07T19:39:11.888Z,22.30
2019-06-07T19:41:42.898Z,22.30
2019-06-07T19:44:12.683Z,22.30
2019-06-07T19:46:42.714Z,22.20
2019-06-07T19:49:12.824Z,22.20
2019-06-07T19:51:44.204Z,22.00
2019-06-07T19:54:13.964Z,21.90
2019-06-07T19:56:43.715Z,21.80
2019-06-07T19:59:13.508Z,21.70
2019-06-07T20:01:44.322Z,21.60
2019-06-07T20:04:14.109Z,21.50
2019-06-07T20:06:43.863Z,21.40
2019-06-07T20:09:14.042Z,21.40
2019-06-07T20:11:43.896Z,21.30
2019-06-07T20:14:15.459Z,21.30
2019-06-07T20:16:46.586Z,21.10
2019-06-07T20:19:16.432Z,21.10
2019-06-07T20:21:49.550Z,21.00
2019-06-07T20:24:27.051Z,21.00
2019-06-07T20:26:51.767Z,20.90
2019-06-07T20:29:26.237Z,20.90
2019-06-07T20:31:56.207Z,20.80
2019-06-07T20:34:27.626Z,20.80
2019-06-07T20:36:57.878Z,20.80
2019-06-07T20:39:28.172Z,20.80
2019-06-07T20:41:59.554Z,20.80
2019-06-07T20:44:29.482Z,20.80
2019-06-07T20:47:02.110Z,20.90
2019-06-07T20:49:32.726Z,21.00
2019-06-07T20:52:04.823Z,21.00
2019-06-07T20:54:37.743Z,21.10
2019-06-07T20:57:09.019Z,21.10
2019-06-07T20:59:39.901Z,21.10
2019-06-07T21:02:10.136Z,21.20
2019-06-07T21:04:41.481Z,21.40
2019-06-07T21:07:11.628Z,21.60
2019-06-07T21:09:42.305Z,21.60
2019-06-07T21:12:12.223Z,21.50
2019-06-07T21:14:45.256Z,21.20
2019-06-07T21:17:16.120Z,20.90
2019-06-07T21:19:48.668Z,20.30
2019-06-07T21:22:21.233Z,19.70
2019-06-07T21:24:52.802Z,19.20
2019-06-07T21:27:24.097Z,18.90
2019-06-07T21:29:55.452Z,18.50
2019-06-07T21:32:26.214Z,18.20
2019-06-07T21:34:56.700Z,17.90
2019-06-07T21:37:28.560Z,17.70
2019-06-07T21:39:58.913Z,17.50
2019-06-07T21:42:28.835Z,17.40
2019-06-07T21:44:58.987Z,17.30
2019-06-07T21:47:30.745Z,17.20
2019-06-07T21:50:02.486Z,17.00
2019-06-07T21:52:33.165Z,16.80
2019-06-07T21:55:04.575Z,16.60
2019-06-07T21:57:34.977Z,16.50
2019-06-07T22:00:09.214Z,16.40
2019-06-07T22:02:39.511Z,16.30
2019-06-07T22:05:09.833Z,16.20
2019-06-07T22:07:39.607Z,16.20
2019-06-07T22:10:10.075Z,16.10
2019-06-07T22:12:40.407Z,16.10
2019-06-07T22:15:29.204Z,16.00
2019-06-07T22:17:42.110Z,15.90
2019-06-07T22:20:12.814Z,15.80
2019-06-07T22:22:42.648Z,15.80
2019-06-07T22:25:13.088Z,15.70
2019-06-07T22:27:43.250Z,15.60
2019-06-07T22:30:14.524Z,15.50
2019-06-07T22:32:45.554Z,15.50
2019-06-07T22:35:15.726Z,15.50
2019-06-07T22:37:46.239Z,15.40
2019-06-07T22:40:16.458Z,15.40
2019-06-07T22:42:46.218Z,15.30
2019-06-07T22:45:16.659Z,15.20
2019-06-07T22:47:46.433Z,15.20
2019-06-07T22:50:18.439Z,15.20
2019-06-07T22:52:48.310Z,15.20
2019-06-07T22:55:18.524Z,15.20
2019-06-07T22:57:58.478Z,15.20
2019-06-07T23:00:30.154Z,15.20
2019-06-07T23:02:59.936Z,15.20
2019-06-07T23:05:29.768Z,15.10
2019-06-07T23:08:00.280Z,15.10
2019-06-07T23:10:30.067Z,15.10
2019-06-07T23:12:59.844Z,15.10
2019-06-07T23:15:30.194Z,15.00
2019-06-07T23:18:00.283Z,15.00
2019-06-07T23:20:30.177Z,15.00
2019-06-07T23:23:00.242Z,15.00
2019-06-07T23:25:30.390Z,14.90
2019-06-07T23:28:00.287Z,14.90
2019-06-07T23:30:30.212Z,14.90
2019-06-07T23:33:00.550Z,15.00
2019-06-07T23:35:30.539Z,15.00
2019-06-07T23:38:00.437Z,15.00
2019-06-07T23:40:30.717Z,15.00
2019-06-07T23:43:00.590Z,15.00
2019-06-07T23:45:30.527Z,15.00
2019-06-07T23:48:00.594Z,15.00
2019-06-07T23:50:30.464Z,15.00
2019-06-07T23:53:00.337Z,15.00
2019-06-07T23:55:30.246Z,15.00
2019-06-07T23:58:00.118Z,15.00
